createdAt,value
2019-02-05T00:00:32.348Z,-0.80
2019-02-05T00:03:13.842Z,-0.80
2019-02-05T00:05:53.617Z,-0.80
2019-02-05T00:08:32.821Z,-0.90
2019-02-05T00:11:12.226Z,-0.90
2019-02-05T00:13:51.285Z,-0.80
2019-02-05T00:16:30.586Z,-0.60
2019-02-05T00:19:10.161Z,-0.50
2019-02-05T00:21:49.549Z,-0.50
2019-02-05T00:24:31.118Z,-0.50
2019-02-05T00:27:12.208Z,-0.50
2019-02-05T00:29:51.387Z,-0.40
2019-02-05T00:32:30.649Z,-0.40
2019-02-05T00:35:11.835Z,-0.40
2019-02-05T00:37:51.187Z,-0.40
2019-02-05T00:40:31.493Z,-0.40
2019-02-05T00:43:10.960Z,-0.40
2019-02-05T00:45:52.606Z,-0.50
2019-02-05T00:48:31.979Z,-0.50
2019-02-05T00:51:11.500Z,-0.50
2019-02-05T00:53:50.778Z,-0.50
2019-02-05T00:56:31.238Z,-0.60
2019-02-05T00:59:11.683Z,-0.50
2019-02-05T01:01:50.892Z,-0.60
2019-02-05T01:04:30.041Z,-0.60
2019-02-05T01:07:09.154Z,-0.60
2019-02-05T01:09:48.314Z,-0.60
2019-02-05T01:12:27.541Z,-0.70
2019-02-05T01:15:08.706Z,-0.80
2019-02-05T01:17:47.878Z,-0.80
2019-02-05T01:20:29.178Z,-0.80
2019-02-05T01:23:08.434Z,-0.80
2019-02-05T01:25:47.767Z,-0.70
2019-02-05T01:28:27.135Z,-0.60
2019-02-05T01:31:06.325Z,-0.60
2019-02-05T01:33:45.591Z,-0.60
2019-02-05T01:36:24.750Z,-0.60
2019-02-05T01:39:05.511Z,-0.50
2019-02-05T01:41:45.393Z,-0.50
2019-02-05T01:44:24.783Z,-0.50
2019-02-05T01:47:05.376Z,-0.50
2019-02-05T01:49:45.581Z,-0.50
2019-02-05T01:52:25.069Z,-0.50
2019-02-05T01:55:04.799Z,-0.60
2019-02-05T01:57:45.545Z,-0.60
2019-02-05T02:00:34.918Z,-0.80
2019-02-05T02:03:14.153Z,-0.80
2019-02-05T02:05:55.537Z,-0.60
2019-02-05T02:08:48.693Z,-0.60
2019-02-05T02:11:28.957Z,-0.60
2019-02-05T02:14:08.512Z,-0.60
2019-02-05T02:16:47.859Z,-0.60
2019-02-05T02:19:32.286Z,-0.70
2019-02-05T02:22:11.539Z,-0.80
2019-02-05T02:24:50.731Z,-0.90
2019-02-05T02:27:30.032Z,-0.90
2019-02-05T02:30:21.301Z,-0.90
2019-02-05T02:33:00.603Z,-0.90
2019-02-05T02:35:39.912Z,-0.90
2019-02-05T02:38:19.172Z,-1.00
2019-02-05T02:40:58.342Z,-1.10
2019-02-05T02:43:37.695Z,-1.10
2019-02-05T02:46:16.913Z,-1.10
2019-02-05T02:48:56.252Z,-1.10
2019-02-05T02:51:35.476Z,-1.20
2019-02-05T02:54:14.629Z,-1.30
2019-02-05T02:57:04.501Z,-1.40
2019-02-05T02:59:34.711Z,-1.50
2019-02-05T03:02:14.510Z,-1.60
2019-02-05T03:04:53.825Z,-1.70
2019-02-05T03:07:32.905Z,-1.70
2019-02-05T03:10:20.174Z,-1.70
2019-02-05T03:13:00.218Z,-1.60
2019-02-05T03:15:39.541Z,-1.60
2019-02-05T03:18:32.899Z,-1.60
2019-02-05T03:21:12.235Z,-1.60
2019-02-05T03:23:51.418Z,-1.50
2019-02-05T03:26:32.392Z,-1.50
2019-02-05T03:29:11.703Z,-1.50
2019-02-05T03:31:51.091Z,-1.50
2019-02-05T03:34:40.930Z,-1.50
2019-02-05T03:37:22.760Z,-1.60
2019-02-05T03:40:11.587Z,-1.70
2019-02-05T03:42:50.991Z,-1.70
2019-02-05T03:45:32.901Z,-1.80
2019-02-05T03:48:14.331Z,-1.90
2019-02-05T03:51:27.429Z,-2.00
2019-02-05T03:55:02.885Z,-2.00
2019-02-05T03:58:22.508Z,-1.90
2019-02-05T04:01:45.111Z,-2.10
2019-02-05T04:05:32.417Z,-2.20
2019-02-05T04:08:40.035Z,-2.30
2019-02-05T04:11:48.045Z,-2.40
2019-02-05T04:15:07.983Z,-2.30
2019-02-05T04:18:45.397Z,-2.30
2019-02-05T04:21:54.776Z,-2.30
2019-02-05T04:24:59.716Z,-2.50
2019-02-05T04:28:15.897Z,-2.70
2019-02-05T04:31:52.162Z,-2.80
2019-02-05T04:35:27.051Z,-2.80
2019-02-05T04:38:56.951Z,-2.90
2019-02-05T04:42:54.621Z,-2.90
2019-02-05T04:46:24.228Z,-3.00
2019-02-05T04:49:50.405Z,-3.00
2019-02-05T04:53:16.231Z,-3.00
2019-02-05T04:56:41.193Z,-2.90
2019-02-05T05:00:06.080Z,-2.70
2019-02-05T05:03:25.281Z,-2.50
2019-02-05T05:06:49.189Z,-2.70
2019-02-05T05:09:50.893Z,-2.90
2019-02-05T05:12:30.928Z,-3.10
2019-02-05T05:15:13.705Z,-3.10
2019-02-05T05:17:52.815Z,-3.10
2019-02-05T05:20:32.640Z,-3.10
2019-02-05T05:23:11.928Z,-3.10
2019-02-05T05:25:51.287Z,-3.00
2019-02-05T05:28:30.465Z,-3.00
2019-02-05T05:31:10.911Z,-2.90
2019-02-05T05:33:50.626Z,-2.90
2019-02-05T05:36:29.888Z,-2.80
2019-02-05T05:39:10.347Z,-2.80
2019-02-05T05:41:49.535Z,-2.80
2019-02-05T05:44:28.645Z,-2.80
2019-02-05T05:47:11.873Z,-2.60
2019-02-05T05:49:51.077Z,-2.40
2019-02-05T05:52:30.297Z,-2.40
2019-02-05T05:55:09.645Z,-2.40
2019-02-05T05:57:50.908Z,-2.40
2019-02-05T06:00:30.094Z,-2.40
2019-02-05T06:03:10.378Z,-2.50
2019-02-05T06:05:50.057Z,-2.50
2019-02-05T06:08:29.338Z,-2.70
2019-02-05T06:11:08.558Z,-2.70
2019-02-05T06:13:48.360Z,-2.70
2019-02-05T06:16:27.572Z,-2.70
2019-02-05T06:19:09.058Z,-2.70
2019-02-05T06:21:48.224Z,-2.70
2019-02-05T06:24:27.423Z,-2.60
2019-02-05T06:27:06.704Z,-2.70
2019-02-05T06:29:45.906Z,-2.70
2019-02-05T06:32:27.197Z,-2.70
2019-02-05T06:35:07.474Z,-2.80
2019-02-05T06:37:46.767Z,-2.70
2019-02-05T06:40:26.188Z,-2.90
2019-02-05T06:43:05.827Z,-2.90
2019-02-05T06:45:45.081Z,-3.00
2019-02-05T06:48:24.877Z,-2.90
2019-02-05T06:51:04.156Z,-3.00
2019-02-05T06:53:43.477Z,-3.00
2019-02-05T06:56:24.290Z,-3.00
2019-02-05T06:59:03.514Z,-2.90
2019-02-05T07:01:42.755Z,-2.70
2019-02-05T07:04:22.270Z,-2.70
2019-02-05T07:07:01.831Z,-2.70
2019-02-05T07:09:41.106Z,-2.80
2019-02-05T07:12:20.492Z,-2.70
2019-02-05T07:15:00.377Z,-2.70
2019-02-05T07:17:49.251Z,-2.60
2019-02-05T07:20:20.669Z,-2.60
2019-02-05T07:22:59.982Z,-2.50
2019-02-05T07:25:39.166Z,-2.40
2019-02-05T07:28:18.234Z,-2.30
2019-02-05T07:30:57.433Z,-2.20
2019-02-05T07:33:36.590Z,-2.00
2019-02-05T07:36:15.958Z,-2.00
2019-02-05T07:38:55.102Z,-2.00
2019-02-05T07:41:34.389Z,-2.00
2019-02-05T07:44:13.559Z,-1.80
2019-02-05T07:46:54.903Z,-1.60
2019-02-05T07:49:35.140Z,-1.30
2019-02-05T07:52:14.472Z,-1.00
2019-02-05T07:54:53.713Z,-0.80
2019-02-05T07:57:32.893Z,-0.70
2019-02-05T08:00:19.545Z,-0.50
2019-02-05T08:02:58.797Z,-0.30
2019-02-05T08:05:37.951Z,-0.10
2019-02-05T08:08:17.239Z,0.40
2019-02-05T08:10:57.998Z,0.60
2019-02-05T08:13:37.285Z,0.80
2019-02-05T08:16:16.649Z,0.60
2019-02-05T08:18:56.356Z,0.70
2019-02-05T08:21:37.619Z,1.00
2019-02-05T08:24:16.884Z,1.20
2019-02-05T08:26:56.688Z,1.60
2019-02-05T08:29:36.422Z,2.00
2019-02-05T08:32:16.044Z,2.40
2019-02-05T08:34:55.314Z,2.60
2019-02-05T08:37:34.386Z,2.70
2019-02-05T08:40:18.989Z,2.70
2019-02-05T08:42:58.258Z,2.60
2019-02-05T08:45:38.541Z,2.40
2019-02-05T08:48:18.417Z,2.40
2019-02-05T08:50:58.316Z,2.40
2019-02-05T08:53:37.665Z,2.50
2019-02-05T08:56:16.814Z,2.60
2019-02-05T08:58:56.472Z,2.60
2019-02-05T09:01:36.321Z,2.70
2019-02-05T09:04:15.390Z,3.00
2019-02-05T09:06:55.151Z,3.80
2019-02-05T09:09:34.979Z,4.80
2019-02-05T09:12:17.951Z,5.10
2019-02-05T09:14:56.604Z,5.10
2019-02-05T09:17:36.377Z,5.00
2019-02-05T09:20:17.924Z,4.80
2019-02-05T09:22:57.779Z,5.00
2019-02-05T09:25:37.681Z,4.90
2019-02-05T09:28:17.608Z,4.60
2019-02-05T09:30:57.256Z,4.30
2019-02-05T09:33:36.961Z,4.20
2019-02-05T09:36:16.671Z,4.00
2019-02-05T09:38:56.459Z,3.70
2019-02-05T09:41:36.612Z,3.60
2019-02-05T09:44:16.437Z,3.40
2019-02-05T09:46:56.606Z,3.60
2019-02-05T09:49:38.033Z,3.90
2019-02-05T09:52:19.232Z,4.20
2019-02-05T09:54:59.677Z,4.60
2019-02-05T09:57:39.458Z,4.70
2019-02-05T10:00:22.999Z,4.60
2019-02-05T10:03:02.898Z,4.50
2019-02-05T10:05:42.857Z,4.60
2019-02-05T10:08:22.697Z,4.40
2019-02-05T10:11:02.569Z,4.40
2019-02-05T10:13:42.296Z,4.60
2019-02-05T10:16:22.231Z,4.80
2019-02-05T10:19:02.078Z,4.80
2019-02-05T10:21:42.452Z,4.50
2019-02-05T10:24:22.232Z,4.50
2019-02-05T10:27:02.107Z,4.60
2019-02-05T10:29:41.896Z,4.60
2019-02-05T10:32:21.706Z,4.70
2019-02-05T10:35:01.524Z,4.70
2019-02-05T10:37:41.400Z,4.60
2019-02-05T10:40:22.374Z,4.50
2019-02-05T10:43:03.387Z,4.50
2019-02-05T10:45:43.199Z,4.40
2019-02-05T10:48:23.156Z,4.20
2019-02-05T10:51:02.949Z,4.10
2019-02-05T10:53:42.854Z,4.10
2019-02-05T10:56:23.061Z,4.00
2019-02-05T10:59:02.943Z,4.00
2019-02-05T11:01:42.801Z,4.10
2019-02-05T11:04:22.809Z,4.10
2019-02-05T11:07:06.496Z,4.10
2019-02-05T11:09:46.501Z,4.20
2019-02-05T11:12:26.468Z,4.30
2019-02-05T11:15:10.001Z,4.20
2019-02-05T11:17:49.926Z,4.20
2019-02-05T11:20:29.896Z,4.30
2019-02-05T11:23:09.973Z,4.40
2019-02-05T11:25:49.859Z,4.40
2019-02-05T11:28:29.724Z,4.50
2019-02-05T11:31:09.440Z,4.70
2019-02-05T11:33:49.236Z,4.70
2019-02-05T11:36:30.828Z,4.80
2019-02-05T11:39:16.520Z,4.70
2019-02-05T11:41:56.564Z,4.80
2019-02-05T11:44:36.249Z,4.90
2019-02-05T11:47:16.627Z,5.10
2019-02-05T11:49:56.379Z,5.10
2019-02-05T11:52:36.187Z,5.10
2019-02-05T11:55:18.469Z,5.10
2019-02-05T11:57:58.295Z,5.20
2019-02-05T12:00:47.075Z,5.20
2019-02-05T12:03:27.226Z,5.20
2019-02-05T12:06:08.181Z,5.20
2019-02-05T12:08:47.908Z,5.10
2019-02-05T12:11:27.651Z,5.10
2019-02-05T12:14:07.643Z,5.10
2019-02-05T12:16:48.678Z,5.00
2019-02-05T12:19:28.426Z,5.00
2019-02-05T12:22:08.110Z,5.30
2019-02-05T12:24:47.934Z,5.20
2019-02-05T12:27:28.066Z,5.20
2019-02-05T12:30:17.510Z,5.20
2019-02-05T12:32:57.601Z,5.10
2019-02-05T12:35:37.446Z,4.90
2019-02-05T12:38:20.995Z,5.00
2019-02-05T12:41:00.848Z,5.10
2019-02-05T12:43:40.981Z,5.20
2019-02-05T12:46:21.413Z,5.40
2019-02-05T12:49:01.218Z,5.30
2019-02-05T12:51:41.004Z,5.10
2019-02-05T12:54:21.324Z,5.00
2019-02-05T12:57:01.394Z,5.00
2019-02-05T12:59:41.251Z,5.10
2019-02-05T13:02:21.036Z,4.90
2019-02-05T13:05:00.771Z,4.80
2019-02-05T13:07:41.703Z,4.60
2019-02-05T13:10:24.851Z,4.60
2019-02-05T13:13:05.817Z,4.60
2019-02-05T13:15:45.587Z,4.50
2019-02-05T13:18:25.469Z,4.60
2019-02-05T13:21:06.280Z,4.60
2019-02-05T13:23:46.164Z,4.70
2019-02-05T13:26:28.223Z,4.60
2019-02-05T13:29:12.550Z,4.60
2019-02-05T13:31:52.270Z,4.70
2019-02-05T13:34:32.249Z,4.80
2019-02-05T13:37:12.115Z,4.80
2019-02-05T13:39:52.494Z,4.80
2019-02-05T13:42:32.295Z,4.80
2019-02-05T13:45:13.097Z,4.80
2019-02-05T13:47:52.906Z,4.80
2019-02-05T13:50:33.981Z,4.80
2019-02-05T13:53:13.927Z,5.00
2019-02-05T13:55:53.820Z,4.80
2019-02-05T13:58:33.480Z,4.80
2019-02-05T14:01:20.115Z,4.70
2019-02-05T14:03:54.993Z,4.80
2019-02-05T14:06:34.756Z,4.80
2019-02-05T14:09:14.920Z,4.80
2019-02-05T14:11:54.680Z,4.80
2019-02-05T14:14:34.506Z,4.70
2019-02-05T14:17:14.256Z,4.70
2019-02-05T14:19:54.132Z,4.60
2019-02-05T14:22:33.901Z,4.60
2019-02-05T14:25:14.369Z,4.60
2019-02-05T14:27:54.236Z,4.80
2019-02-05T14:30:40.822Z,4.80
2019-02-05T14:33:20.664Z,4.70
2019-02-05T14:36:00.954Z,4.70
2019-02-05T14:38:40.856Z,4.70
2019-02-05T14:41:21.186Z,4.70
2019-02-05T14:44:00.964Z,4.90
2019-02-05T14:46:41.670Z,5.10
2019-02-05T14:49:23.273Z,5.30
2019-02-05T14:52:03.177Z,5.30
2019-02-05T14:54:42.984Z,5.30
2019-02-05T14:57:23.664Z,5.20
2019-02-05T15:00:03.646Z,5.10
2019-02-05T15:02:44.762Z,5.00
2019-02-05T15:05:26.983Z,4.90
2019-02-05T15:08:10.189Z,4.90
2019-02-05T15:10:50.134Z,5.00
2019-02-05T15:13:29.909Z,4.90
2019-02-05T15:16:10.750Z,4.90
2019-02-05T15:18:50.556Z,4.70
2019-02-05T15:21:30.516Z,4.40
2019-02-05T15:24:10.448Z,4.20
2019-02-05T15:26:50.518Z,4.30
2019-02-05T15:29:30.612Z,4.20
2019-02-05T15:32:13.960Z,4.10
2019-02-05T15:34:55.982Z,4.10
2019-02-05T15:37:38.169Z,4.00
2019-02-05T15:40:18.897Z,3.90
2019-02-05T15:42:59.197Z,3.90
2019-02-05T15:45:38.947Z,3.80
2019-02-05T15:48:19.030Z,3.80
2019-02-05T15:50:58.819Z,3.70
2019-02-05T15:53:39.029Z,3.70
2019-02-05T15:56:19.600Z,3.60
2019-02-05T15:58:59.344Z,3.60
2019-02-05T16:01:39.643Z,3.60
2019-02-05T16:04:22.563Z,3.50
2019-02-05T16:07:02.291Z,3.50
2019-02-05T16:10:02.714Z,3.40
2019-02-05T16:12:42.547Z,3.40
2019-02-05T16:15:22.446Z,3.40
2019-02-05T16:18:02.252Z,3.40
2019-02-05T16:20:42.201Z,3.40
2019-02-05T16:23:22.090Z,3.30
2019-02-05T16:26:02.145Z,3.30
2019-02-05T16:28:41.882Z,3.30
2019-02-05T16:31:22.048Z,3.20
2019-02-05T16:34:01.879Z,3.30
2019-02-05T16:36:41.640Z,3.30
2019-02-05T16:39:21.440Z,3.30
2019-02-05T16:42:01.260Z,3.30
2019-02-05T16:44:43.386Z,3.30
2019-02-05T16:47:27.166Z,3.20
2019-02-05T16:50:12.707Z,3.20
2019-02-05T16:52:52.875Z,3.20
2019-02-05T16:55:32.828Z,3.20
2019-02-05T16:58:12.789Z,3.30
2019-02-05T17:00:52.509Z,3.20
2019-02-05T17:03:32.242Z,3.20
2019-02-05T17:06:12.102Z,3.20
2019-02-05T17:08:51.895Z,3.20
2019-02-05T17:11:31.685Z,3.20
2019-02-05T17:14:11.508Z,3.20
2019-02-05T17:16:51.263Z,3.30
2019-02-05T17:19:31.879Z,3.20
2019-02-05T17:22:12.126Z,3.20
2019-02-05T17:24:54.630Z,3.20
2019-02-05T17:27:35.337Z,3.20
2019-02-05T17:30:20.160Z,3.30
2019-02-05T17:33:01.874Z,3.20
2019-02-05T17:35:42.319Z,3.20
2019-02-05T17:38:22.233Z,3.20
2019-02-05T17:41:03.367Z,3.20
2019-02-05T17:43:44.344Z,3.20
2019-02-05T17:46:24.379Z,3.20
2019-02-05T17:49:04.319Z,3.20
2019-02-05T17:51:44.235Z,3.20
2019-02-05T17:54:23.466Z,3.30
2019-02-05T17:57:03.419Z,3.30
2019-02-05T17:59:43.110Z,3.30
2019-02-05T18:02:24.057Z,3.30
2019-02-05T18:05:05.625Z,3.20
2019-02-05T18:07:45.637Z,3.30
2019-02-05T18:10:26.972Z,3.30
2019-02-05T18:13:07.145Z,3.30
2019-02-05T18:15:46.977Z,3.30
2019-02-05T18:18:27.547Z,3.20
2019-02-05T18:21:10.125Z,3.30
2019-02-05T18:23:50.088Z,3.30
2019-02-05T18:26:31.631Z,3.30
2019-02-05T18:29:12.098Z,3.30
2019-02-05T18:31:52.053Z,3.30
2019-02-05T18:34:32.485Z,3.20
2019-02-05T18:37:12.417Z,3.20
2019-02-05T18:39:52.185Z,3.20
2019-02-05T18:42:32.723Z,3.20
2019-02-05T18:45:15.304Z,3.30
2019-02-05T18:47:55.336Z,3.30
2019-02-05T18:50:37.809Z,3.30
2019-02-05T18:53:17.646Z,3.20
2019-02-05T18:55:57.740Z,3.20
2019-02-05T18:58:38.579Z,3.20
2019-02-05T19:01:18.681Z,3.20
2019-02-05T19:03:58.540Z,3.20
2019-02-05T19:06:40.281Z,3.20
2019-02-05T19:09:20.269Z,3.20
2019-02-05T19:12:04.171Z,3.20
2019-02-05T19:14:42.805Z,3.20
2019-02-05T19:17:23.196Z,3.20
2019-02-05T19:20:03.392Z,3.10
2019-02-05T19:22:44.184Z,3.10
2019-02-05T19:25:53.737Z,3.10
2019-02-05T19:28:36.818Z,3.10
2019-02-05T19:31:38.942Z,3.20
2019-02-05T19:34:19.628Z,3.20
2019-02-05T19:36:59.866Z,3.20
2019-02-05T19:39:40.107Z,3.20
2019-02-05T19:42:20.570Z,3.20
2019-02-05T19:45:28.662Z,3.20
2019-02-05T19:48:13.358Z,3.20
2019-02-05T19:50:52.843Z,3.20
2019-02-05T19:53:32.808Z,3.20
2019-02-05T19:56:14.945Z,3.20
2019-02-05T19:58:55.290Z,3.20
2019-02-05T20:01:36.038Z,3.20
2019-02-05T20:04:16.088Z,3.10
2019-02-05T20:06:56.269Z,3.10
2019-02-05T20:09:36.503Z,3.10
2019-02-05T20:12:16.231Z,3.10
2019-02-05T20:14:59.311Z,3.20
2019-02-05T20:17:39.182Z,3.20
2019-02-05T20:20:19.311Z,3.20
2019-02-05T20:23:02.600Z,3.30
2019-02-05T20:25:43.008Z,3.30
2019-02-05T20:28:24.947Z,3.20
2019-02-05T20:31:05.901Z,3.10
2019-02-05T20:33:49.951Z,3.20
2019-02-05T20:36:29.117Z,3.20
2019-02-05T20:39:17.238Z,3.20
2019-02-05T20:41:57.468Z,3.10
2019-02-05T20:44:37.480Z,3.10
2019-02-05T20:47:18.903Z,3.10
2019-02-05T20:49:59.236Z,3.10
2019-02-05T20:52:39.695Z,3.20
2019-02-05T20:55:20.883Z,3.20
2019-02-05T20:58:00.899Z,3.20
2019-02-05T21:00:42.005Z,3.20
2019-02-05T21:03:22.160Z,3.10
2019-02-05T21:06:01.821Z,3.10
2019-02-05T21:08:41.853Z,3.10
2019-02-05T21:11:21.766Z,3.10
2019-02-05T21:14:01.659Z,3.10
2019-02-05T21:16:41.834Z,3.10
2019-02-05T21:19:22.396Z,3.10
2019-02-05T21:22:02.642Z,3.20
2019-02-05T21:24:42.671Z,3.10
2019-02-05T21:27:22.503Z,3.00
2019-02-05T21:30:02.402Z,3.00
2019-02-05T21:32:42.338Z,3.00
2019-02-05T21:35:26.088Z,3.00
2019-02-05T21:38:07.421Z,3.00
2019-02-05T21:40:47.352Z,3.00
2019-02-05T21:43:30.117Z,3.00
2019-02-05T21:46:10.159Z,2.90
2019-02-05T21:48:50.225Z,2.90
2019-02-05T21:51:40.587Z,2.90
2019-02-05T21:54:13.066Z,3.00
2019-02-05T21:56:56.109Z,3.00
2019-02-05T21:59:35.356Z,3.00
2019-02-05T22:02:15.397Z,3.00
2019-02-05T22:04:54.744Z,3.00
2019-02-05T22:07:34.684Z,3.00
2019-02-05T22:10:14.955Z,3.00
2019-02-05T22:12:58.624Z,3.00
2019-02-05T22:15:38.815Z,3.00
2019-02-05T22:18:19.585Z,2.90
2019-02-05T22:20:59.400Z,2.90
2019-02-05T22:23:39.218Z,2.90
2019-02-05T22:26:19.705Z,2.90
2019-02-05T22:28:59.404Z,2.90
2019-02-05T22:31:39.210Z,2.90
2019-02-05T22:34:19.383Z,2.90
2019-02-05T22:36:59.091Z,2.90
2019-02-05T22:39:40.749Z,2.90
2019-02-05T22:42:22.229Z,2.90
2019-02-05T22:45:02.313Z,2.90
2019-02-05T22:47:42.555Z,2.90
2019-02-05T22:50:28.716Z,2.90
2019-02-05T22:53:08.688Z,2.90
2019-02-05T22:55:48.456Z,2.90
2019-02-05T22:58:28.376Z,2.90
2019-02-05T23:01:38.380Z,2.90
2019-02-05T23:05:08.815Z,2.90
2019-02-05T23:07:48.503Z,2.90
2019-02-05T23:11:26.653Z,3.00
2019-02-05T23:14:07.070Z,2.90
2019-02-05T23:16:47.459Z,2.80
2019-02-05T23:19:27.297Z,2.80
2019-02-05T23:22:07.696Z,2.90
2019-02-05T23:24:47.453Z,3.10
2019-02-05T23:27:28.176Z,3.10
2019-02-05T23:30:15.980Z,3.00
2019-02-05T23:32:55.369Z,2.90
2019-02-05T23:35:35.109Z,2.80
2019-02-05T23:38:14.310Z,2.70
2019-02-05T23:40:55.184Z,2.80
2019-02-05T23:43:34.319Z,2.90
2019-02-05T23:46:15.289Z,2.80
2019-02-05T23:48:55.115Z,2.80
2019-02-05T23:51:34.467Z,2.80
2019-02-05T23:54:13.612Z,2.80
2019-02-05T23:56:52.922Z,2.70
2019-02-05T23:59:32.651Z,2.60
